createdAt,value
2023-02-14T00:01:20.611Z,88.70
2023-02-14T00:03:49.376Z,87.57
2023-02-14T00:06:17.426Z,87.40
2023-02-14T00:08:45.525Z,100.72
2023-02-14T00:11:13.970Z,88.32
2023-02-14T00:14:01.526Z,87.13
2023-02-14T00:16:28.835Z,85.85
2023-02-14T00:19:05.466Z,84.85
2023-02-14T00:21:36.585Z,82.68
2023-02-14T00:24:10.997Z,85.20
2023-02-14T00:26:38.836Z,82.03
2023-02-14T00:29:07.663Z,82.20
2023-02-14T00:31:35.875Z,95.70
2023-02-14T00:34:04.650Z,81.25
2023-02-14T00:36:32.249Z,76.68
2023-02-14T00:38:59.508Z,99.35
2023-02-14T00:41:26.854Z,102.18
2023-02-14T00:43:54.472Z,75.45
2023-02-14T00:46:23.859Z,92.72
2023-02-14T00:48:51.799Z,87.45
2023-02-14T00:51:19.845Z,92.90
2023-02-14T00:53:48.768Z,81.60
2023-02-14T00:56:17.043Z,93.13
2023-02-14T00:58:45.054Z,85.78
2023-02-14T01:01:12.793Z,83.18
2023-02-14T01:03:40.273Z,84.50
2023-02-14T01:06:08.475Z,92.35
2023-02-14T01:08:35.894Z,81.70
2023-02-14T01:11:10.137Z,86.85
2023-02-14T01:13:37.870Z,82.00
2023-02-14T01:16:10.614Z,95.65
2023-02-14T01:18:38.636Z,85.18
2023-02-14T01:21:20.148Z,78.90
2023-02-14T01:23:51.605Z,85.95
2023-02-14T01:26:21.014Z,77.88
2023-02-14T01:28:49.231Z,79.70
2023-02-14T01:31:28.494Z,80.32
2023-02-14T01:33:58.605Z,74.85
2023-02-14T01:36:32.509Z,87.45
2023-02-14T01:39:03.023Z,88.60
2023-02-14T01:41:32.818Z,90.22
2023-02-14T01:44:02.073Z,87.20
2023-02-14T01:46:32.730Z,90.25
2023-02-14T01:49:10.308Z,85.15
2023-02-14T01:51:42.976Z,83.10
2023-02-14T01:54:11.617Z,86.55
2023-02-14T01:56:43.714Z,92.15
2023-02-14T01:59:17.101Z,88.07
2023-02-14T02:01:46.831Z,89.75
2023-02-14T02:04:19.071Z,92.72
2023-02-14T02:06:52.324Z,87.93
2023-02-14T02:09:34.143Z,87.40
2023-02-14T02:12:02.241Z,89.75
2023-02-14T02:14:29.634Z,85.40
2023-02-14T02:17:21.643Z,82.82
2023-02-14T02:20:07.507Z,100.50
2023-02-14T02:22:59.565Z,109.68
2023-02-14T02:25:51.079Z,99.45
2023-02-14T02:28:40.252Z,91.88
2023-02-14T02:31:54.578Z,91.20
2023-02-14T02:34:37.436Z,94.75
2023-02-14T02:37:25.412Z,106.97
2023-02-14T02:40:22.231Z,103.72
2023-02-14T02:43:20.882Z,95.40
2023-02-14T02:46:14.494Z,109.25
2023-02-14T02:48:58.441Z,97.25
2023-02-14T02:52:16.227Z,91.00
2023-02-14T02:54:50.114Z,86.65
2023-02-14T02:57:23.700Z,92.22
2023-02-14T02:59:53.620Z,97.25
2023-02-14T03:02:31.006Z,87.53
2023-02-14T03:05:05.353Z,84.70
2023-02-14T03:07:41.494Z,87.22
2023-02-14T03:10:30.079Z,93.40
2023-02-14T03:12:57.627Z,74.78
2023-02-14T03:15:48.317Z,97.63
2023-02-14T03:18:34.534Z,90.50
2023-02-14T03:21:30.821Z,116.93
2023-02-14T03:24:15.148Z,95.00
2023-02-14T03:26:59.429Z,99.53
2023-02-14T03:29:43.608Z,105.70
2023-02-14T03:32:35.284Z,91.45
2023-02-14T03:35:24.085Z,98.07
2023-02-14T03:38:15.236Z,90.60
2023-02-14T03:40:45.400Z,86.70
2023-02-14T03:43:35.644Z,95.20
2023-02-14T03:46:11.861Z,98.47
2023-02-14T03:48:40.648Z,87.00
2023-02-14T03:51:11.792Z,84.63
2023-02-14T03:53:49.901Z,84.57
2023-02-14T03:56:39.992Z,84.65
2023-02-14T03:59:21.723Z,90.35
2023-02-14T04:02:11.036Z,89.45
2023-02-14T04:04:45.045Z,89.90
2023-02-14T04:07:18.565Z,84.38
2023-02-14T04:09:46.421Z,89.30
2023-02-14T04:12:14.748Z,95.45
2023-02-14T04:14:42.668Z,85.88
2023-02-14T04:17:28.315Z,82.68
2023-02-14T04:19:55.709Z,84.85
2023-02-14T04:22:22.983Z,88.20
2023-02-14T04:24:50.209Z,78.90
2023-02-14T04:27:17.467Z,87.70
2023-02-14T04:29:47.615Z,87.95
2023-02-14T04:32:18.631Z,94.15
2023-02-14T04:34:46.324Z,87.43
2023-02-14T04:37:15.635Z,78.05
2023-02-14T04:39:42.976Z,73.20
2023-02-14T04:42:10.306Z,97.18
2023-02-14T04:44:40.386Z,83.25
2023-02-14T04:47:08.507Z,91.65
2023-02-14T04:49:36.449Z,85.78
2023-02-14T04:52:04.885Z,98.63
2023-02-14T04:54:32.599Z,98.82
2023-02-14T04:56:59.835Z,90.30
2023-02-14T04:59:27.147Z,90.90
2023-02-14T05:01:54.719Z,96.47
2023-02-14T05:04:22.012Z,95.75
2023-02-14T05:06:49.303Z,111.40
2023-02-14T05:09:16.557Z,104.47
2023-02-14T05:11:43.783Z,104.35
2023-02-14T05:14:11.316Z,100.18
2023-02-14T05:16:38.701Z,90.88
2023-02-14T05:19:06.152Z,86.15
2023-02-14T05:21:33.487Z,103.13
2023-02-14T05:24:01.481Z,92.47
2023-02-14T05:26:29.223Z,84.72
2023-02-14T05:28:56.673Z,94.72
2023-02-14T05:31:24.055Z,83.05
2023-02-14T05:33:51.373Z,84.65
2023-02-14T05:36:18.661Z,89.57
2023-02-14T05:38:45.967Z,84.32
2023-02-14T05:41:13.180Z,80.85
2023-02-14T05:43:40.439Z,94.05
2023-02-14T05:46:08.335Z,88.10
2023-02-14T05:48:35.718Z,90.18
2023-02-14T05:51:07.216Z,95.20
2023-02-14T05:53:34.528Z,92.57
2023-02-14T05:56:02.808Z,97.63
2023-02-14T05:58:30.068Z,100.68
2023-02-14T06:00:58.451Z,105.68
2023-02-14T06:03:25.957Z,101.40
2023-02-14T06:05:53.267Z,106.28
2023-02-14T06:08:20.958Z,97.88
2023-02-14T06:10:48.161Z,98.93
2023-02-14T06:13:15.515Z,92.43
2023-02-14T06:15:42.824Z,96.55
2023-02-14T06:18:10.102Z,109.40
2023-02-14T06:20:37.417Z,111.53
2023-02-14T06:23:05.034Z,130.27
2023-02-14T06:25:32.787Z,124.18
2023-02-14T06:28:00.295Z,120.90
2023-02-14T06:30:28.377Z,107.88
2023-02-14T06:32:55.802Z,100.05
2023-02-14T06:35:23.845Z,95.63
2023-02-14T06:37:51.009Z,95.25
2023-02-14T06:40:19.641Z,95.50
2023-02-14T06:42:47.559Z,96.63
2023-02-14T06:45:14.786Z,91.80
2023-02-14T06:47:42.107Z,96.88
2023-02-14T06:50:11.681Z,97.90
2023-02-14T06:52:39.202Z,90.75
2023-02-14T06:55:06.905Z,103.50
2023-02-14T06:57:34.581Z,83.60
2023-02-14T07:00:01.835Z,107.35
2023-02-14T07:02:29.196Z,89.63
2023-02-14T07:04:56.581Z,85.72
2023-02-14T07:07:23.901Z,92.47
2023-02-14T07:09:51.667Z,93.78
2023-02-14T07:12:18.899Z,86.55
2023-02-14T07:14:46.217Z,111.15
2023-02-14T07:17:13.879Z,90.32
2023-02-14T07:19:41.092Z,90.45
2023-02-14T07:22:08.457Z,96.90
2023-02-14T07:24:35.730Z,103.70
2023-02-14T07:27:03.056Z,91.50
2023-02-14T07:29:30.451Z,94.07
2023-02-14T07:31:57.792Z,98.03
2023-02-14T07:34:25.320Z,117.18
2023-02-14T07:36:52.584Z,113.63
2023-02-14T07:39:19.987Z,112.32
2023-02-14T07:41:47.289Z,109.90
2023-02-14T07:44:19.584Z,112.35
2023-02-14T07:46:46.924Z,112.22
2023-02-14T07:49:14.484Z,115.97
2023-02-14T07:51:42.945Z,114.82
2023-02-14T07:54:10.273Z,126.38
2023-02-14T07:56:37.555Z,112.35
2023-02-14T07:59:05.247Z,111.72
2023-02-14T08:01:32.550Z,109.85
2023-02-14T08:03:59.930Z,105.03
2023-02-14T08:06:29.164Z,111.38
2023-02-14T08:08:56.431Z,106.13
2023-02-14T08:11:42.497Z,101.50
2023-02-14T08:14:09.803Z,114.47
2023-02-14T08:16:38.304Z,113.78
2023-02-14T08:19:05.785Z,106.82
2023-02-14T08:21:33.674Z,114.57
2023-02-14T08:24:00.934Z,98.95
2023-02-14T08:26:28.278Z,100.05
2023-02-14T08:28:55.542Z,102.18
2023-02-14T08:31:35.732Z,105.65
2023-02-14T08:34:07.175Z,107.55
2023-02-14T08:36:35.158Z,104.82
2023-02-14T08:39:04.753Z,96.72
2023-02-14T08:41:32.257Z,102.65
2023-02-14T08:43:59.572Z,97.28
2023-02-14T08:46:26.921Z,98.30
2023-02-14T08:48:54.876Z,105.13
2023-02-14T08:51:22.777Z,110.07
2023-02-14T08:53:51.733Z,114.68
2023-02-14T08:56:21.003Z,114.40
2023-02-14T08:58:51.284Z,113.05
2023-02-14T09:01:19.018Z,108.35
2023-02-14T09:03:46.518Z,110.68
2023-02-14T09:06:17.402Z,119.53
2023-02-14T09:08:45.472Z,117.70
2023-02-14T09:11:15.430Z,120.15
2023-02-14T09:13:43.283Z,128.57
2023-02-14T09:16:12.820Z,109.13
2023-02-14T09:18:40.697Z,117.00
2023-02-14T09:21:13.568Z,114.40
2023-02-14T09:23:40.857Z,106.18
2023-02-14T09:26:10.628Z,125.07
2023-02-14T09:28:38.568Z,112.88
2023-02-14T09:31:13.527Z,118.22
2023-02-14T09:33:41.596Z,116.90
2023-02-14T09:36:27.640Z,117.38
2023-02-14T09:38:55.459Z,124.07
2023-02-14T09:41:25.399Z,121.90
2023-02-14T09:44:00.462Z,132.88
2023-02-14T09:46:30.778Z,119.68
2023-02-14T09:48:58.747Z,129.32
2023-02-14T09:51:31.150Z,121.70
2023-02-14T09:54:10.398Z,135.00
2023-02-14T09:57:03.063Z,133.95
2023-02-14T09:59:42.477Z,125.03
2023-02-14T10:02:45.698Z,124.88
2023-02-14T10:05:42.383Z,139.30
2023-02-14T10:08:31.372Z,140.80
2023-02-14T10:11:11.950Z,117.60
2023-02-14T10:13:42.447Z,140.35
2023-02-14T10:16:16.782Z,126.65
2023-02-14T10:18:54.388Z,139.93
2023-02-14T10:21:33.948Z,133.98
2023-02-14T10:24:23.393Z,123.65
2023-02-14T10:26:52.693Z,131.45
2023-02-14T10:29:20.843Z,132.98
2023-02-14T10:31:58.573Z,130.23
2023-02-14T10:34:35.100Z,131.50
2023-02-14T10:37:30.191Z,122.10
2023-02-14T10:40:06.134Z,126.60
2023-02-14T10:43:15.262Z,126.47
2023-02-14T10:45:47.984Z,119.65
2023-02-14T10:48:30.280Z,126.90
2023-02-14T10:51:16.435Z,111.28
2023-02-14T10:54:02.500Z,118.35
2023-02-14T10:56:48.100Z,116.43
2023-02-14T10:59:51.030Z,119.53
2023-02-14T11:02:23.765Z,112.25
2023-02-14T11:04:51.411Z,111.70
2023-02-14T11:07:21.484Z,125.60
2023-02-14T11:09:48.819Z,106.35
2023-02-14T11:12:43.814Z,101.35
2023-02-14T11:15:14.079Z,107.53
2023-02-14T11:17:42.435Z,107.80
2023-02-14T11:20:30.313Z,112.35
2023-02-14T11:22:57.917Z,113.05
2023-02-14T11:25:27.760Z,103.72
2023-02-14T11:28:02.509Z,105.20
2023-02-14T11:30:40.983Z,96.75
2023-02-14T11:33:41.050Z,103.22
2023-02-14T11:36:16.707Z,97.68
2023-02-14T11:38:45.729Z,92.55
2023-02-14T11:41:16.271Z,82.38
2023-02-14T11:43:45.454Z,81.47
2023-02-14T11:46:15.730Z,81.63
2023-02-14T11:49:01.500Z,76.03
2023-02-14T11:51:40.641Z,69.78
2023-02-14T11:54:14.254Z,67.30
2023-02-14T11:56:53.964Z,85.05
2023-02-14T11:59:33.204Z,66.65
2023-02-14T12:02:29.289Z,68.88
2023-02-14T12:05:03.936Z,62.83
2023-02-14T12:07:33.470Z,62.10
2023-02-14T12:10:19.394Z,62.05
2023-02-14T12:12:49.482Z,66.72
2023-02-14T12:15:26.917Z,58.45
2023-02-14T12:18:03.850Z,57.30
2023-02-14T12:21:00.701Z,54.78
2023-02-14T12:23:42.152Z,52.88
2023-02-14T12:26:47.782Z,52.65
2023-02-14T12:29:38.918Z,50.38
2023-02-14T12:32:18.940Z,49.65
2023-02-14T12:34:46.391Z,42.78
2023-02-14T12:37:39.528Z,48.17
2023-02-14T12:40:31.846Z,56.50
2023-02-14T12:43:17.570Z,53.03
2023-02-14T12:46:09.519Z,44.95
2023-02-14T12:49:10.738Z,36.40
2023-02-14T12:52:05.229Z,38.70
2023-02-14T12:54:55.393Z,29.45
2023-02-14T12:58:00.492Z,21.65
2023-02-14T13:00:58.888Z,13.95
2023-02-14T13:03:45.068Z,17.85
2023-02-14T13:06:28.378Z,10.60
2023-02-14T13:09:13.465Z,16.35
2023-02-14T13:12:11.218Z,15.50
2023-02-14T13:14:41.759Z,32.58
2023-02-14T13:17:15.188Z,17.33
2023-02-14T13:20:12.890Z,14.07
2023-02-14T13:22:41.543Z,13.77
2023-02-14T13:25:31.695Z,22.25
2023-02-14T13:28:01.547Z,17.67
2023-02-14T13:30:38.785Z,13.88
2023-02-14T13:33:09.872Z,12.65
2023-02-14T13:35:37.751Z,14.65
2023-02-14T13:38:08.653Z,22.55
2023-02-14T13:40:36.436Z,24.58
2023-02-14T13:43:03.926Z,22.85
2023-02-14T13:45:40.161Z,24.00
2023-02-14T13:48:12.173Z,31.33
2023-02-14T13:50:52.435Z,39.42
2023-02-14T13:53:44.608Z,30.63
2023-02-14T13:56:11.960Z,30.02
2023-02-14T13:58:59.938Z,26.25
2023-02-14T14:01:50.045Z,47.00
2023-02-14T14:04:26.597Z,32.60
2023-02-14T14:07:02.858Z,25.92
2023-02-14T14:09:42.094Z,29.23
2023-02-14T14:12:27.808Z,29.80
2023-02-14T14:15:08.546Z,21.25
2023-02-14T14:17:38.113Z,18.33
2023-02-14T14:20:20.275Z,29.85
2023-02-14T14:22:58.524Z,14.90
2023-02-14T14:25:41.052Z,17.80
2023-02-14T14:28:20.916Z,16.27
2023-02-14T14:30:48.398Z,14.55
2023-02-14T14:33:34.323Z,22.02
2023-02-14T14:36:08.791Z,15.63
2023-02-14T14:38:48.290Z,12.27
2023-02-14T14:41:15.685Z,20.83
2023-02-14T14:43:43.463Z,16.77
2023-02-14T14:46:15.866Z,22.13
2023-02-14T14:48:51.610Z,16.80
2023-02-14T14:51:34.489Z,21.00
2023-02-14T14:54:06.722Z,23.58
2023-02-14T14:56:44.736Z,15.40
2023-02-14T14:59:19.525Z,14.73
2023-02-14T15:01:47.881Z,18.10
2023-02-14T15:04:15.208Z,17.88
2023-02-14T15:06:43.006Z,19.20
2023-02-14T15:09:23.958Z,17.45
2023-02-14T15:12:12.932Z,21.25
2023-02-14T15:14:44.520Z,12.20
2023-02-14T15:17:22.600Z,18.15
2023-02-14T15:20:03.874Z,16.80
2023-02-14T15:22:45.803Z,13.55
2023-02-14T15:25:32.178Z,14.27
2023-02-14T15:28:00.694Z,11.48
2023-02-14T15:30:38.932Z,16.90
2023-02-14T15:33:07.934Z,20.50
2023-02-14T15:35:38.963Z,16.38
2023-02-14T15:38:09.998Z,19.20
2023-02-14T15:40:38.841Z,19.98
2023-02-14T15:43:39.359Z,19.38
2023-02-14T15:46:26.316Z,16.13
2023-02-14T15:48:55.792Z,15.73
2023-02-14T15:51:27.135Z,17.00
2023-02-14T15:54:00.646Z,20.58
2023-02-14T15:56:31.415Z,15.02
2023-02-14T15:59:07.791Z,17.75
2023-02-14T16:01:36.892Z,14.23
2023-02-14T16:04:06.968Z,24.40
2023-02-14T16:06:40.387Z,27.42
2023-02-14T16:09:24.937Z,21.35
2023-02-14T16:11:53.829Z,18.08
2023-02-14T16:14:37.978Z,18.83
2023-02-14T16:17:35.036Z,31.10
2023-02-14T16:20:33.722Z,23.73
2023-02-14T16:23:29.441Z,16.50
2023-02-14T16:25:59.565Z,22.48
2023-02-14T16:28:30.949Z,17.75
2023-02-14T16:31:01.001Z,17.83
2023-02-14T16:33:35.524Z,24.85
2023-02-14T16:36:15.790Z,25.00
2023-02-14T16:38:45.688Z,15.68
2023-02-14T16:41:18.669Z,21.52
2023-02-14T16:43:47.466Z,22.40
2023-02-14T16:46:17.294Z,24.50
2023-02-14T16:48:52.055Z,27.67
2023-02-14T16:51:25.621Z,20.95
2023-02-14T16:53:55.168Z,30.95
2023-02-14T16:56:29.861Z,24.13
2023-02-14T16:59:00.101Z,26.52
2023-02-14T17:01:27.993Z,29.83
2023-02-14T17:03:55.697Z,20.70
2023-02-14T17:06:27.546Z,28.83
2023-02-14T17:08:57.752Z,31.08
2023-02-14T17:11:26.790Z,32.08
2023-02-14T17:13:55.284Z,37.13
2023-02-14T17:16:22.847Z,28.08
2023-02-14T17:18:52.424Z,32.75
2023-02-14T17:21:23.987Z,36.70
2023-02-14T17:23:51.270Z,26.38
2023-02-14T17:26:19.890Z,41.70
2023-02-14T17:28:47.327Z,26.65
2023-02-14T17:31:15.157Z,39.28
2023-02-14T17:33:42.557Z,36.03
2023-02-14T17:36:12.466Z,43.92
2023-02-14T17:38:43.288Z,29.95
2023-02-14T17:41:18.706Z,29.65
2023-02-14T17:43:46.448Z,37.45
2023-02-14T17:46:15.367Z,30.73
2023-02-14T17:48:45.439Z,39.35
2023-02-14T17:51:14.811Z,33.75
2023-02-14T17:53:43.872Z,38.38
2023-02-14T17:56:20.343Z,40.55
2023-02-14T17:58:49.534Z,37.60
2023-02-14T18:01:19.522Z,44.90
2023-02-14T18:03:47.312Z,35.58
2023-02-14T18:06:15.232Z,40.95
2023-02-14T18:08:49.841Z,38.75
2023-02-14T18:11:19.273Z,60.40
2023-02-14T18:13:46.986Z,60.85
2023-02-14T18:16:16.938Z,56.15
2023-02-14T18:18:45.093Z,50.58
2023-02-14T18:21:16.628Z,48.47
2023-02-14T18:23:44.025Z,49.83
2023-02-14T18:26:14.127Z,47.25
2023-02-14T18:28:41.604Z,42.25
2023-02-14T18:31:10.356Z,45.95
2023-02-14T18:33:38.763Z,44.22
2023-02-14T18:36:14.419Z,50.22
2023-02-14T18:38:43.614Z,52.22
2023-02-14T18:41:13.594Z,53.70
2023-02-14T18:43:41.600Z,54.88
2023-02-14T18:46:14.004Z,58.03
2023-02-14T18:48:41.407Z,63.85
2023-02-14T18:51:10.831Z,58.90
2023-02-14T18:53:39.430Z,60.28
2023-02-14T18:56:09.631Z,61.75
2023-02-14T18:58:36.954Z,86.60
2023-02-14T19:01:13.147Z,65.88
2023-02-14T19:03:41.250Z,74.32
2023-02-14T19:06:09.820Z,77.40
2023-02-14T19:08:38.961Z,77.72
2023-02-14T19:11:17.626Z,76.88
2023-02-14T19:13:51.010Z,75.20
2023-02-14T19:16:21.522Z,72.57
2023-02-14T19:18:55.685Z,78.97
2023-02-14T19:21:26.006Z,72.85
2023-02-14T19:23:56.192Z,72.78
2023-02-14T19:26:29.834Z,75.13
2023-02-14T19:29:01.996Z,84.65
2023-02-14T19:31:30.992Z,87.25
2023-02-14T19:33:58.203Z,84.15
2023-02-14T19:36:25.551Z,82.72
2023-02-14T19:38:54.164Z,72.03
2023-02-14T19:41:25.184Z,92.18
2023-02-14T19:43:55.095Z,75.70
2023-02-14T19:46:22.439Z,84.03
2023-02-14T19:48:49.998Z,77.03
2023-02-14T19:51:21.492Z,91.97
2023-02-14T19:53:49.760Z,81.75
2023-02-14T19:56:22.246Z,89.55
2023-02-14T19:58:50.708Z,76.07
2023-02-14T20:01:41.513Z,86.25
2023-02-14T20:04:12.074Z,87.72
2023-02-14T20:06:39.383Z,79.93
2023-02-14T20:09:07.772Z,72.25
2023-02-14T20:11:49.894Z,76.75
2023-02-14T20:14:23.035Z,79.30
2023-02-14T20:16:51.815Z,91.95
2023-02-14T20:19:23.073Z,89.05
2023-02-14T20:21:51.217Z,78.60
2023-02-14T20:24:25.174Z,79.30
2023-02-14T20:26:53.324Z,81.32
2023-02-14T20:29:22.651Z,84.63
2023-02-14T20:31:52.670Z,77.57
2023-02-14T20:34:20.049Z,75.03
2023-02-14T20:36:52.946Z,82.20
2023-02-14T20:39:22.294Z,83.30
2023-02-14T20:41:53.951Z,78.35
2023-02-14T20:44:21.680Z,84.90
2023-02-14T20:46:51.613Z,81.68
2023-02-14T20:49:20.282Z,83.88
2023-02-14T20:51:49.690Z,83.45
2023-02-14T20:54:22.232Z,74.22
2023-02-14T20:56:50.777Z,87.60
2023-02-14T20:59:19.375Z,91.80
2023-02-14T21:01:47.331Z,73.45
2023-02-14T21:04:16.479Z,82.25
2023-02-14T21:06:43.894Z,78.40
2023-02-14T21:09:11.168Z,74.32
2023-02-14T21:11:38.486Z,84.38
2023-02-14T21:14:05.775Z,79.00
2023-02-14T21:16:33.371Z,81.10
2023-02-14T21:19:00.829Z,86.75
2023-02-14T21:21:32.511Z,85.28
2023-02-14T21:24:01.909Z,77.00
2023-02-14T21:26:29.335Z,78.45
2023-02-14T21:28:56.843Z,77.97
2023-02-14T21:31:27.457Z,84.00
2023-02-14T21:33:57.414Z,86.72
2023-02-14T21:36:27.048Z,88.97
2023-02-14T21:38:58.699Z,79.50
2023-02-14T21:41:28.787Z,83.38
2023-02-14T21:43:58.700Z,86.05
2023-02-14T21:46:31.290Z,81.97
2023-02-14T21:49:19.048Z,84.40
2023-02-14T21:54:15.117Z,83.85
2023-02-14T21:56:43.002Z,99.55
2023-02-14T21:59:10.338Z,82.57
2023-02-14T22:01:40.148Z,85.00
2023-02-14T22:04:09.926Z,84.75
2023-02-14T22:06:39.107Z,86.70
2023-02-14T22:09:06.932Z,83.07
2023-02-14T22:11:34.920Z,80.43
2023-02-14T22:14:02.780Z,82.20
2023-02-14T22:16:30.156Z,83.93
2023-02-14T22:18:58.237Z,87.88
2023-02-14T22:21:26.959Z,79.65
2023-02-14T22:23:55.664Z,84.35
2023-02-14T22:26:25.806Z,80.93
2023-02-14T22:29:03.129Z,70.68
2023-02-14T22:31:34.830Z,77.55
2023-02-14T22:34:03.132Z,75.22
2023-02-14T22:36:30.704Z,70.03
2023-02-14T22:38:58.254Z,93.95
2023-02-14T22:41:26.469Z,73.57
2023-02-14T22:43:53.941Z,76.97
2023-02-14T22:46:27.485Z,63.15
2023-02-14T22:48:55.929Z,70.57
2023-02-14T22:51:26.212Z,70.05
2023-02-14T22:53:58.304Z,69.20
2023-02-14T22:56:31.430Z,70.28
2023-02-14T22:59:01.679Z,68.65
2023-02-14T23:01:28.932Z,70.10
2023-02-14T23:03:58.246Z,75.63
2023-02-14T23:06:28.185Z,68.57
2023-02-14T23:08:56.571Z,69.07
2023-02-14T23:11:29.698Z,72.82
2023-02-14T23:14:15.475Z,70.00
2023-02-14T23:17:01.738Z,72.43
2023-02-14T23:19:53.674Z,61.00
2023-02-14T23:22:36.607Z,66.45
2023-02-14T23:25:07.276Z,68.07
2023-02-14T23:27:44.361Z,76.22
2023-02-14T23:32:40.711Z,71.90
2023-02-14T23:35:08.637Z,66.05
2023-02-14T23:37:35.931Z,68.18
2023-02-14T23:40:04.088Z,67.30
2023-02-14T23:42:31.407Z,66.95
2023-02-14T23:45:18.721Z,69.35
2023-02-14T23:47:46.124Z,70.38
2023-02-14T23:50:13.798Z,79.68
2023-02-14T23:52:41.833Z,74.22
2023-02-14T23:55:09.453Z,72.13
2023-02-14T23:57:37.107Z,61.00
